createdAt,value
2023-04-28T00:00:40.460Z,20.10
2023-04-28T00:03:21.196Z,22.70
2023-04-28T00:05:49.648Z,21.95
2023-04-28T00:08:17.440Z,22.20
2023-04-28T00:10:45.824Z,21.70
2023-04-28T00:13:13.488Z,20.88
2023-04-28T00:15:41.394Z,19.10
2023-04-28T00:18:09.031Z,21.38
2023-04-28T00:20:37.086Z,22.60
2023-04-28T00:23:05.019Z,20.88
2023-04-28T00:25:33.235Z,20.92
2023-04-28T00:28:01.626Z,20.00
2023-04-28T00:30:31.343Z,20.40
2023-04-28T00:32:59.014Z,21.98
2023-04-28T00:35:27.065Z,22.88
2023-04-28T00:37:54.932Z,23.55
2023-04-28T00:40:23.549Z,23.15
2023-04-28T00:42:51.264Z,21.92
2023-04-28T00:45:19.307Z,22.35
2023-04-28T00:47:47.018Z,21.85
2023-04-28T00:50:16.595Z,22.38
2023-04-28T00:52:44.310Z,23.83
2023-04-28T00:55:14.870Z,23.08
2023-04-28T00:57:43.310Z,22.95
2023-04-28T01:00:12.249Z,23.67
2023-04-28T01:02:40.076Z,22.80
2023-04-28T01:05:10.238Z,23.25
2023-04-28T01:07:39.119Z,22.90
2023-04-28T01:10:08.891Z,23.50
2023-04-28T01:12:36.941Z,22.80
2023-04-28T01:15:05.394Z,23.48
2023-04-28T01:17:34.351Z,21.92
2023-04-28T01:20:03.145Z,21.63
2023-04-28T01:22:31.011Z,23.00
2023-04-28T01:25:00.311Z,23.67
2023-04-28T01:27:28.109Z,24.63
2023-04-28T01:29:57.390Z,22.33
2023-04-28T01:32:25.212Z,23.17
2023-04-28T01:34:53.139Z,22.27
2023-04-28T01:37:20.880Z,21.85
2023-04-28T01:39:48.843Z,21.30
2023-04-28T01:42:16.526Z,20.40
2023-04-28T01:44:44.396Z,18.98
2023-04-28T01:47:12.050Z,20.77
2023-04-28T01:49:39.922Z,20.67
2023-04-28T01:52:08.768Z,19.80
2023-04-28T01:54:36.783Z,17.90
2023-04-28T01:57:04.444Z,18.60
2023-04-28T01:59:33.182Z,17.63
2023-04-28T02:02:01.145Z,18.40
2023-04-28T02:04:29.432Z,17.80
2023-04-28T02:06:57.142Z,18.38
2023-04-28T02:09:25.225Z,18.33
2023-04-28T02:11:52.863Z,18.27
2023-04-28T02:14:22.049Z,17.23
2023-04-28T02:16:49.792Z,17.52
2023-04-28T02:19:17.769Z,17.50
2023-04-28T02:21:45.428Z,16.63
2023-04-28T02:24:15.204Z,16.30
2023-04-28T02:26:43.034Z,17.10
2023-04-28T02:29:11.021Z,16.77
2023-04-28T02:31:38.783Z,17.60
2023-04-28T02:34:06.768Z,18.52
2023-04-28T02:36:34.414Z,17.98
2023-04-28T02:39:02.413Z,18.48
2023-04-28T02:41:31.210Z,18.13
2023-04-28T02:43:59.232Z,17.63
2023-04-28T02:46:27.308Z,19.33
2023-04-28T02:48:55.248Z,18.75
2023-04-28T02:51:22.960Z,17.95
2023-04-28T02:53:51.122Z,19.42
2023-04-28T02:56:19.000Z,18.85
2023-04-28T02:58:46.914Z,19.55
2023-04-28T03:01:14.658Z,19.88
2023-04-28T03:03:42.738Z,21.27
2023-04-28T03:06:10.781Z,20.90
2023-04-28T03:08:38.961Z,22.52
2023-04-28T03:11:07.288Z,20.85
2023-04-28T03:13:36.241Z,21.73
2023-04-28T03:16:04.456Z,21.73
2023-04-28T03:18:32.478Z,22.60
2023-04-28T03:21:00.134Z,21.80
2023-04-28T03:23:29.530Z,21.48
2023-04-28T03:25:57.301Z,21.50
2023-04-28T03:28:26.434Z,21.63
2023-04-28T03:30:54.061Z,20.98
2023-04-28T03:33:22.516Z,21.67
2023-04-28T03:35:50.749Z,22.02
2023-04-28T03:38:18.850Z,23.83
2023-04-28T03:40:46.804Z,24.20
2023-04-28T03:43:27.317Z,23.92
2023-04-28T03:46:16.416Z,23.35
2023-04-28T03:48:46.183Z,24.45
2023-04-28T03:51:14.300Z,25.42
2023-04-28T03:53:42.968Z,23.75
2023-04-28T03:56:10.769Z,24.98
2023-04-28T03:58:40.465Z,24.88
2023-04-28T04:01:08.172Z,24.23
2023-04-28T04:03:36.176Z,26.13
2023-04-28T04:06:04.121Z,25.30
2023-04-28T04:08:33.411Z,24.23
2023-04-28T04:11:01.416Z,25.42
2023-04-28T04:13:29.348Z,24.67
2023-04-28T04:15:57.821Z,23.23
2023-04-28T04:18:26.327Z,25.10
2023-04-28T04:21:19.002Z,24.88
2023-04-28T04:23:48.265Z,25.85
2023-04-28T04:26:16.073Z,26.23
2023-04-28T04:28:44.035Z,24.25
2023-04-28T04:31:12.497Z,24.35
2023-04-28T04:33:40.616Z,24.45
2023-04-28T04:36:08.519Z,22.48
2023-04-28T04:38:36.521Z,21.25
2023-04-28T04:41:14.240Z,21.92
2023-04-28T04:43:42.487Z,21.33
2023-04-28T04:46:10.209Z,20.63
2023-04-28T04:48:38.230Z,19.33
2023-04-28T04:51:05.992Z,19.48
2023-04-28T04:53:34.426Z,20.23
2023-04-28T04:56:02.751Z,20.00
2023-04-28T04:58:32.725Z,19.85
2023-04-28T05:01:20.316Z,18.73
2023-04-28T05:03:48.795Z,19.27
2023-04-28T05:06:16.657Z,19.73
2023-04-28T05:08:47.599Z,19.23
2023-04-28T05:11:16.278Z,18.83
2023-04-28T05:13:45.565Z,19.00
2023-04-28T05:16:14.034Z,18.50
2023-04-28T05:19:07.951Z,17.40
2023-04-28T05:21:35.882Z,17.70
2023-04-28T05:24:04.840Z,17.70
2023-04-28T05:26:32.801Z,18.38
2023-04-28T05:31:35.059Z,19.75
2023-04-28T05:34:03.286Z,20.27
2023-04-28T05:36:32.062Z,21.05
2023-04-28T05:39:00.591Z,20.63
2023-04-28T05:41:28.714Z,20.60
2023-04-28T05:43:56.821Z,19.63
2023-04-28T05:46:30.795Z,17.48
2023-04-28T05:49:00.916Z,19.13
2023-04-28T05:51:34.113Z,20.45
2023-04-28T05:54:03.211Z,19.63
2023-04-28T05:56:32.469Z,17.92
2023-04-28T05:59:04.302Z,19.55
2023-04-28T06:01:32.579Z,17.80
2023-04-28T06:04:00.838Z,17.05
2023-04-28T06:06:29.081Z,16.73
2023-04-28T06:08:57.323Z,16.63
2023-04-28T06:11:26.865Z,17.05
2023-04-28T06:13:54.828Z,16.33
2023-04-28T06:16:23.605Z,17.02
2023-04-28T06:18:52.080Z,16.80
2023-04-28T06:21:21.516Z,16.20
2023-04-28T06:23:49.248Z,15.25
2023-04-28T06:26:18.380Z,16.13
2023-04-28T06:28:46.536Z,16.25
2023-04-28T06:31:14.798Z,14.95
2023-04-28T06:33:42.465Z,14.13
2023-04-28T06:36:13.968Z,16.23
2023-04-28T06:38:43.863Z,15.82
2023-04-28T06:41:11.994Z,15.10
2023-04-28T06:43:41.215Z,14.23
2023-04-28T06:46:12.527Z,15.07
2023-04-28T06:48:40.435Z,14.57
2023-04-28T06:51:08.332Z,13.38
2023-04-28T06:53:36.339Z,12.82
2023-04-28T06:56:04.551Z,11.65
2023-04-28T06:58:32.309Z,11.30
2023-04-28T07:01:00.235Z,9.63
2023-04-28T07:03:28.065Z,10.45
2023-04-28T07:05:56.152Z,10.13
2023-04-28T07:08:23.798Z,8.48
2023-04-28T07:10:52.154Z,8.38
2023-04-28T07:13:19.805Z,8.38
2023-04-28T07:15:48.014Z,7.68
2023-04-28T07:18:16.316Z,7.30
2023-04-28T07:20:44.856Z,7.05
2023-04-28T07:23:12.595Z,6.97
2023-04-28T07:25:41.359Z,6.97
2023-04-28T07:28:09.353Z,6.97
2023-04-28T07:30:37.224Z,6.20
2023-04-28T07:33:05.046Z,4.07
2023-04-28T07:35:33.394Z,3.95
2023-04-28T07:38:02.248Z,4.32
2023-04-28T07:40:30.392Z,4.65
2023-04-28T07:42:58.352Z,4.38
2023-04-28T07:45:26.360Z,2.92
2023-04-28T07:47:54.118Z,2.40
2023-04-28T07:50:22.298Z,2.90
2023-04-28T07:52:49.996Z,3.13
2023-04-28T07:55:17.986Z,2.40
2023-04-28T07:57:45.667Z,2.50
2023-04-28T08:00:14.169Z,2.50
2023-04-28T08:02:42.081Z,3.50
2023-04-28T08:05:11.052Z,3.50
2023-04-28T08:07:38.931Z,2.90
2023-04-28T08:10:07.380Z,2.67
2023-04-28T08:12:35.064Z,2.60
2023-04-28T08:15:04.009Z,3.08
2023-04-28T08:17:31.734Z,3.15
2023-04-28T08:20:00.326Z,3.13
2023-04-28T08:22:28.112Z,3.00
2023-04-28T08:24:56.096Z,2.50
2023-04-28T08:27:25.694Z,2.63
2023-04-28T08:29:53.865Z,2.90
2023-04-28T08:32:21.562Z,2.95
2023-04-28T08:34:50.101Z,2.90
2023-04-28T08:37:17.902Z,2.75
2023-04-28T08:39:46.436Z,2.63
2023-04-28T08:42:14.836Z,2.97
2023-04-28T08:44:42.782Z,3.08
2023-04-28T08:47:14.738Z,3.63
2023-04-28T08:49:44.283Z,3.95
2023-04-28T08:52:16.860Z,3.70
2023-04-28T08:54:47.251Z,3.90
2023-04-28T08:57:15.176Z,3.67
2023-04-28T08:59:43.138Z,3.55
2023-04-28T09:02:11.327Z,3.40
2023-04-28T09:04:39.878Z,2.28
2023-04-28T09:07:14.482Z,2.78
2023-04-28T09:09:42.528Z,2.50
2023-04-28T09:12:10.140Z,2.70
2023-04-28T09:14:39.220Z,3.30
2023-04-28T09:17:16.634Z,2.83
2023-04-28T09:19:44.765Z,2.60
2023-04-28T09:22:24.969Z,3.13
2023-04-28T09:24:55.832Z,3.45
2023-04-28T09:27:29.854Z,3.60
2023-04-28T09:29:57.918Z,3.40
2023-04-28T09:32:28.182Z,3.50
2023-04-28T09:34:57.287Z,3.83
2023-04-28T09:37:27.372Z,3.30
2023-04-28T09:39:55.916Z,3.40
2023-04-28T09:42:47.985Z,3.20
2023-04-28T09:45:16.680Z,3.10
2023-04-28T09:47:48.378Z,2.80
2023-04-28T09:50:18.321Z,2.92
2023-04-28T09:52:57.305Z,2.88
2023-04-28T09:55:27.399Z,3.40
2023-04-28T09:57:56.575Z,3.08
2023-04-28T10:00:25.074Z,3.03
2023-04-28T10:02:53.596Z,3.40
2023-04-28T10:05:23.669Z,3.33
2023-04-28T10:07:54.121Z,3.58
2023-04-28T10:10:22.837Z,3.15
2023-04-28T10:12:52.085Z,3.55
2023-04-28T10:15:20.435Z,3.35
2023-04-28T10:17:50.911Z,3.30
2023-04-28T10:20:20.410Z,4.05
2023-04-28T10:23:06.802Z,3.30
2023-04-28T10:25:37.366Z,3.63
2023-04-28T10:28:09.561Z,3.80
2023-04-28T10:30:38.177Z,3.55
2023-04-28T10:33:14.986Z,3.60
2023-04-28T10:35:45.733Z,3.67
2023-04-28T10:38:17.720Z,4.07
2023-04-28T10:40:47.468Z,3.92
2023-04-28T10:43:34.566Z,3.85
2023-04-28T10:46:06.909Z,4.20
2023-04-28T10:48:34.870Z,4.35
2023-04-28T10:51:09.953Z,4.13
2023-04-28T10:53:47.319Z,3.88
2023-04-28T10:56:25.384Z,3.78
2023-04-28T10:58:57.283Z,3.53
2023-04-28T11:01:26.759Z,3.65
2023-04-28T11:04:08.145Z,3.00
2023-04-28T11:06:40.218Z,3.67
2023-04-28T11:09:20.059Z,3.50
2023-04-28T11:12:10.641Z,3.53
2023-04-28T11:14:40.851Z,3.85
2023-04-28T11:17:13.248Z,3.20
2023-04-28T11:19:43.244Z,3.30
2023-04-28T11:22:23.648Z,3.05
2023-04-28T11:25:01.404Z,3.55
2023-04-28T11:27:32.341Z,3.38
2023-04-28T11:30:01.644Z,3.40
2023-04-28T11:32:34.537Z,3.40
2023-04-28T11:35:04.594Z,3.38
2023-04-28T11:37:32.785Z,3.40
2023-04-28T11:40:11.395Z,3.70
2023-04-28T11:42:48.644Z,3.70
2023-04-28T11:45:16.495Z,3.42
2023-04-28T11:47:44.462Z,3.55
2023-04-28T11:50:14.217Z,3.50
2023-04-28T11:52:53.706Z,3.58
2023-04-28T11:55:21.809Z,3.50
2023-04-28T11:57:49.785Z,3.45
2023-04-28T12:00:22.495Z,3.17
2023-04-28T12:02:51.133Z,3.40
2023-04-28T12:05:20.852Z,3.83
2023-04-28T12:07:48.921Z,3.38
2023-04-28T12:10:17.734Z,3.53
2023-04-28T12:12:51.818Z,3.63
2023-04-28T12:15:22.411Z,3.03
2023-04-28T12:17:51.476Z,3.00
2023-04-28T12:20:39.744Z,2.95
2023-04-28T12:23:08.612Z,2.70
2023-04-28T12:25:45.052Z,2.88
2023-04-28T12:28:13.091Z,3.33
2023-04-28T12:30:43.943Z,3.53
2023-04-28T12:33:29.750Z,3.45
2023-04-28T12:35:58.303Z,3.20
2023-04-28T12:38:28.230Z,3.25
2023-04-28T12:40:56.619Z,3.55
2023-04-28T12:43:24.893Z,2.92
2023-04-28T12:45:54.001Z,4.00
2023-04-28T12:48:26.244Z,4.20
2023-04-28T12:50:53.973Z,3.47
2023-04-28T12:53:21.973Z,3.58
2023-04-28T12:55:49.702Z,3.80
2023-04-28T12:58:18.400Z,3.65
2023-04-28T13:00:46.136Z,3.50
2023-04-28T13:03:15.864Z,3.60
2023-04-28T13:05:44.319Z,4.20
2023-04-28T13:08:13.561Z,4.05
2023-04-28T13:10:41.605Z,3.92
2023-04-28T13:13:09.545Z,3.92
2023-04-28T13:15:38.951Z,4.18
2023-04-28T13:18:07.246Z,4.55
2023-04-28T13:20:34.951Z,4.22
2023-04-28T13:23:03.608Z,4.00
2023-04-28T13:25:31.457Z,3.90
2023-04-28T13:27:59.420Z,4.30
2023-04-28T13:30:27.300Z,4.80
2023-04-28T13:32:57.403Z,4.50
2023-04-28T13:35:26.266Z,4.15
2023-04-28T13:38:01.683Z,4.47
2023-04-28T13:40:30.013Z,4.07
2023-04-28T13:42:58.102Z,4.70
2023-04-28T13:45:26.909Z,4.68
2023-04-28T13:47:55.550Z,4.50
2023-04-28T13:50:23.190Z,4.75
2023-04-28T13:52:51.248Z,5.07
2023-04-28T13:55:18.980Z,4.75
2023-04-28T13:57:47.029Z,4.82
2023-04-28T14:00:15.588Z,5.00
2023-04-28T14:02:44.011Z,4.88
2023-04-28T14:05:12.247Z,5.25
2023-04-28T14:07:40.271Z,4.78
2023-04-28T14:10:08.347Z,4.78
2023-04-28T14:12:36.806Z,4.82
2023-04-28T14:15:06.160Z,5.07
2023-04-28T14:17:34.821Z,4.68
2023-04-28T14:20:02.804Z,5.55
2023-04-28T14:22:31.293Z,5.50
2023-04-28T14:24:59.280Z,5.40
2023-04-28T14:27:29.392Z,5.95
2023-04-28T14:29:57.243Z,5.03
2023-04-28T14:32:25.226Z,5.65
2023-04-28T14:34:52.897Z,5.97
2023-04-28T14:37:21.302Z,5.13
2023-04-28T14:39:49.941Z,4.57
2023-04-28T14:42:18.063Z,6.07
2023-04-28T14:44:46.403Z,5.65
2023-04-28T14:47:14.748Z,5.47
2023-04-28T14:49:42.466Z,5.50
2023-04-28T14:52:10.740Z,5.60
2023-04-28T14:54:38.490Z,5.70
2023-04-28T14:57:07.268Z,6.85
2023-04-28T14:59:35.993Z,6.28
2023-04-28T15:02:04.094Z,5.95
2023-04-28T15:04:32.897Z,6.30
2023-04-28T15:07:01.834Z,6.22
2023-04-28T15:09:29.569Z,5.60
2023-04-28T15:11:57.959Z,5.57
2023-04-28T15:14:25.739Z,9.20
2023-04-28T15:16:53.991Z,5.45
2023-04-28T15:19:21.648Z,5.63
2023-04-28T15:21:50.032Z,5.70
2023-04-28T15:24:21.387Z,6.05
2023-04-28T15:26:49.300Z,6.65
2023-04-28T15:29:17.004Z,6.22
2023-04-28T15:31:46.535Z,6.10
2023-04-28T15:34:14.467Z,7.07
2023-04-28T15:36:44.706Z,7.28
2023-04-28T15:39:12.564Z,7.10
2023-04-28T15:41:40.640Z,6.22
2023-04-28T15:44:09.917Z,6.22
2023-04-28T15:46:38.057Z,6.15
2023-04-28T15:49:05.759Z,6.18
2023-04-28T15:51:33.814Z,6.10
2023-04-28T15:54:01.622Z,6.07
2023-04-28T15:56:31.034Z,6.50
2023-04-28T15:58:58.942Z,6.60
2023-04-28T16:01:26.926Z,6.20
2023-04-28T16:03:54.787Z,6.35
2023-04-28T16:06:22.819Z,5.75
2023-04-28T16:08:50.509Z,5.90
2023-04-28T16:11:20.347Z,6.00
2023-04-28T16:13:48.110Z,5.80
2023-04-28T16:16:16.025Z,5.70
2023-04-28T16:18:44.284Z,5.78
2023-04-28T16:21:12.371Z,6.07
2023-04-28T16:23:40.082Z,6.43
2023-04-28T16:26:08.068Z,6.63
2023-04-28T16:28:35.689Z,6.03
2023-04-28T16:31:03.811Z,6.05
2023-04-28T16:33:31.514Z,6.25
2023-04-28T16:35:59.843Z,6.28
2023-04-28T16:38:27.633Z,5.57
2023-04-28T16:40:55.712Z,5.72
2023-04-28T16:43:23.358Z,5.82
2023-04-28T16:45:51.448Z,4.70
2023-04-28T16:48:20.740Z,4.75
2023-04-28T16:50:48.663Z,5.05
2023-04-28T16:53:16.308Z,4.53
2023-04-28T16:55:44.382Z,5.50
2023-04-28T16:58:12.044Z,5.80
2023-04-28T17:00:40.047Z,5.95
2023-04-28T17:03:07.872Z,5.60
2023-04-28T17:05:36.145Z,5.32
2023-04-28T17:08:03.929Z,5.72
2023-04-28T17:10:32.484Z,6.00
2023-04-28T17:13:00.230Z,6.38
2023-04-28T17:15:28.126Z,6.22
2023-04-28T17:17:56.596Z,7.47
2023-04-28T17:20:24.593Z,6.95
2023-04-28T17:22:53.120Z,7.07
2023-04-28T17:25:23.568Z,7.75
2023-04-28T17:27:51.317Z,6.10
2023-04-28T17:30:19.280Z,6.57
2023-04-28T17:32:46.977Z,7.20
2023-04-28T17:35:15.024Z,9.32
2023-04-28T17:37:42.779Z,14.70
2023-04-28T17:40:11.207Z,9.40
2023-04-28T17:42:39.007Z,8.98
2023-04-28T17:45:07.788Z,8.30
2023-04-28T17:47:36.364Z,10.15
2023-04-28T17:50:05.203Z,10.25
2023-04-28T17:52:33.016Z,9.57
2023-04-28T17:55:00.944Z,10.50
2023-04-28T17:57:28.711Z,12.77
2023-04-28T17:59:56.739Z,11.98
2023-04-28T18:02:24.566Z,8.50
2023-04-28T18:04:53.064Z,12.50
2023-04-28T18:07:21.193Z,12.15
2023-04-28T18:09:49.184Z,12.88
2023-04-28T18:12:17.157Z,13.35
2023-04-28T18:14:45.465Z,10.65
2023-04-28T18:17:13.186Z,9.82
2023-04-28T18:19:42.113Z,12.20
2023-04-28T18:22:10.034Z,10.77
2023-04-28T18:24:38.032Z,10.55
2023-04-28T18:27:05.665Z,11.38
2023-04-28T18:29:33.568Z,10.57
2023-04-28T18:32:01.338Z,11.98
2023-04-28T18:34:29.359Z,13.50
2023-04-28T18:36:57.131Z,13.82
2023-04-28T18:39:25.362Z,13.98
2023-04-28T18:41:53.182Z,14.52
2023-04-28T18:44:21.090Z,15.63
2023-04-28T18:46:48.912Z,17.83
2023-04-28T18:49:16.797Z,20.83
2023-04-28T18:51:44.490Z,20.48
2023-04-28T18:54:15.870Z,22.42
2023-04-28T18:56:48.086Z,24.58
2023-04-28T18:59:16.250Z,21.52
2023-04-28T19:01:43.891Z,21.88
2023-04-28T19:04:12.168Z,21.42
2023-04-28T19:06:40.072Z,17.73
2023-04-28T19:09:08.059Z,17.13
2023-04-28T19:11:35.789Z,15.55
2023-04-28T19:14:03.777Z,17.85
2023-04-28T19:16:31.515Z,14.77
2023-04-28T19:18:59.864Z,15.93
2023-04-28T19:21:29.474Z,16.67
2023-04-28T19:23:57.660Z,15.55
2023-04-28T19:26:25.423Z,15.18
2023-04-28T19:28:53.465Z,14.98
2023-04-28T19:31:21.122Z,14.10
2023-04-28T19:33:49.176Z,12.82
2023-04-28T19:36:16.819Z,13.30
2023-04-28T19:38:44.742Z,13.13
2023-04-28T19:41:12.463Z,13.27
2023-04-28T19:43:40.721Z,13.68
2023-04-28T19:46:08.975Z,13.27
2023-04-28T19:48:36.948Z,13.30
2023-04-28T19:51:04.775Z,12.95
2023-04-28T19:53:33.964Z,13.02
2023-04-28T19:56:02.176Z,12.80
2023-04-28T19:58:30.350Z,13.52
2023-04-28T20:00:58.461Z,12.55
2023-04-28T20:03:27.039Z,12.18
2023-04-28T20:05:54.816Z,12.13
2023-04-28T20:08:25.645Z,12.25
2023-04-28T20:10:54.984Z,11.70
2023-04-28T20:13:23.014Z,12.52
2023-04-28T20:15:50.864Z,12.40
2023-04-28T20:18:19.032Z,13.25
2023-04-28T20:20:46.709Z,12.93
2023-04-28T20:23:14.691Z,13.30
2023-04-28T20:25:42.471Z,12.77
2023-04-28T20:28:10.438Z,12.88
2023-04-28T20:30:38.467Z,13.00
2023-04-28T20:33:06.550Z,12.95
2023-04-28T20:35:34.359Z,12.05
2023-04-28T20:38:02.337Z,13.63
2023-04-28T20:40:30.796Z,13.55
2023-04-28T20:43:01.653Z,14.52
2023-04-28T20:45:32.745Z,13.95
2023-04-28T20:48:00.765Z,14.15
2023-04-28T20:50:33.199Z,14.23
2023-04-28T20:53:01.499Z,12.63
2023-04-28T20:55:29.310Z,14.40
2023-04-28T20:57:57.178Z,18.48
2023-04-28T21:00:24.835Z,16.02
2023-04-28T21:02:53.115Z,21.63
2023-04-28T21:05:20.998Z,17.60
2023-04-28T21:07:49.053Z,18.10
2023-04-28T21:10:16.851Z,19.98
2023-04-28T21:12:45.607Z,20.40
2023-04-28T21:15:13.504Z,18.08
2023-04-28T21:17:41.513Z,18.92
2023-04-28T21:20:09.576Z,17.83
2023-04-28T21:22:37.778Z,18.08
2023-04-28T21:25:07.102Z,17.33
2023-04-28T21:27:35.096Z,16.58
2023-04-28T21:30:02.919Z,17.25
2023-04-28T21:32:31.108Z,17.45
2023-04-28T21:34:58.730Z,18.05
2023-04-28T21:37:26.954Z,16.77
2023-04-28T21:39:58.023Z,17.10
2023-04-28T21:42:27.771Z,17.00
2023-04-28T21:44:55.446Z,17.27
2023-04-28T21:47:23.482Z,15.52
2023-04-28T21:49:51.485Z,16.25
2023-04-28T21:52:19.572Z,16.67
2023-04-28T21:54:47.472Z,15.93
2023-04-28T21:57:15.905Z,14.93
2023-04-28T21:59:44.056Z,16.48
2023-04-28T22:02:13.108Z,16.33
2023-04-28T22:04:41.392Z,15.35
2023-04-28T22:07:09.380Z,15.48
2023-04-28T22:09:37.176Z,15.35
2023-04-28T22:12:05.165Z,16.08
2023-04-28T22:14:40.633Z,15.95
2023-04-28T22:17:09.764Z,15.80
2023-04-28T22:19:37.820Z,15.48
2023-04-28T22:22:07.679Z,15.07
2023-04-28T22:24:35.577Z,16.02
2023-04-28T22:27:03.895Z,15.52
2023-04-28T22:29:31.580Z,16.25
2023-04-28T22:31:59.525Z,15.93
2023-04-28T22:34:27.225Z,16.27
2023-04-28T22:36:55.145Z,14.82
2023-04-28T22:39:25.165Z,15.98
2023-04-28T22:41:53.292Z,14.98
2023-04-28T22:44:21.218Z,18.15
2023-04-28T22:46:49.285Z,17.77
2023-04-28T22:49:17.307Z,16.63
2023-04-28T22:51:45.194Z,16.90
2023-04-28T22:54:13.763Z,17.80
2023-04-28T22:56:41.834Z,15.90
2023-04-28T22:59:09.595Z,15.48
2023-04-28T23:01:37.783Z,16.33
2023-04-28T23:04:06.192Z,15.20
2023-04-28T23:06:34.364Z,15.55
2023-04-28T23:09:03.676Z,16.70
2023-04-28T23:11:31.724Z,15.98
2023-04-28T23:13:59.363Z,15.63
2023-04-28T23:16:27.414Z,15.32
2023-04-28T23:18:55.049Z,15.60
2023-04-28T23:21:23.563Z,15.32
2023-04-28T23:23:51.583Z,14.93
2023-04-28T23:26:21.038Z,14.98
2023-04-28T23:28:48.925Z,15.65
2023-04-28T23:31:16.960Z,14.95
2023-04-28T23:33:44.688Z,15.32
2023-04-28T23:36:12.672Z,15.23
2023-04-28T23:38:40.478Z,15.35
2023-04-28T23:41:09.166Z,15.30
2023-04-28T23:43:36.902Z,15.23
2023-04-28T23:46:04.920Z,16.00
2023-04-28T23:48:33.018Z,15.77
2023-04-28T23:51:00.915Z,15.80
2023-04-28T23:53:28.548Z,15.98
2023-04-28T23:55:56.459Z,14.95
2023-04-28T23:58:24.122Z,15.50
